Time;durP1;ratioP1;P1;durP2;ratioP2;P2;SDS_P1;SDS_P2;PMS_P1;PMS_P2;Temp;Humidity;BMP_temperature;BMP_pressure;BME280_temperature;BME280_humidity;BME280_pressure;Samples;Min_cycle;Max_cycle;Signal;HPM_P1;HPM_P2
2022/09/22 00:01:47;;;;;;;23.48;18.73;;;;;;;8.01;85.39;102430.66;5037502;28;20032;-79
2022/09/22 00:04:13;;;;;;;21.83;19.10;;;;;;;8.00;84.90;102436.91;5046922;28;20119;-79
2022/09/22 00:06:42;;;;;;;21.45;18.20;;;;;;;7.97;85.33;102430.78;5046249;28;20033;-79
2022/09/22 00:09:11;;;;;;;20.83;18.65;;;;;;;7.95;85.20;102430.00;5050461;28;20025;-79
2022/09/22 00:11:42;;;;;;;23.33;18.48;;;;;;;7.92;85.60;102422.16;5041187;28;20033;-80
2022/09/22 00:14:17;;;;;;;21.00;18.73;;;;;;;7.88;85.88;102417.09;5029044;28;20029;-79
2022/09/22 00:16:49;;;;;;;21.95;19.63;;;;;;;7.88;85.62;102425.88;5044975;28;20037;-79
2022/09/22 00:19:26;;;;;;;21.23;19.08;;;;;;;7.86;85.97;102421.56;5048093;28;20029;-79
2022/09/22 00:21:52;;;;;;;20.50;18.35;;;;;;;7.82;85.98;102423.47;5041167;28;20044;-79
2022/09/22 00:24:20;;;;;;;25.17;18.95;;;;;;;7.80;85.98;102422.69;5046201;28;20037;-80
2022/09/22 00:26:46;;;;;;;21.45;18.33;;;;;;;7.77;85.91;102418.34;5037147;28;20025;-79
2022/09/22 00:29:11;;;;;;;24.25;18.23;;;;;;;7.74;85.75;102413.22;5038890;28;20451;-79
2022/09/22 00:31:39;;;;;;;20.83;18.38;;;;;;;7.69;85.74;102417.78;5039091;28;20487;-80
2022/09/22 00:34:05;;;;;;;22.60;18.13;;;;;;;7.65;85.67;102421.50;5041175;28;20036;-79
2022/09/22 00:36:31;;;;;;;19.42;17.33;;;;;;;7.67;85.70;102426.72;5038883;28;20033;-78
2022/09/22 00:38:57;;;;;;;21.17;18.00;;;;;;;7.64;86.06;102418.91;5031848;28;20048;-79
2022/09/22 00:41:26;;;;;;;19.58;17.48;;;;;;;7.60;85.91;102419.03;5020882;28;20033;-79
2022/09/22 00:44:17;;;;;;;20.45;18.20;;;;;;;7.63;85.79;102418.06;5025103;28;20063;-79
2022/09/22 00:47:12;;;;;;;19.90;17.80;;;;;;;7.57;85.57;102411.19;5027000;28;20022;-79
2022/09/22 00:49:44;;;;;;;20.80;18.67;;;;;;;7.55;85.65;102423.63;5027562;28;20037;-79
2022/09/22 00:52:13;;;;;;;22.02;19.73;;;;;;;7.50;86.28;102417.66;5076108;23;20083;-46
2022/09/22 00:54:38;;;;;;;22.38;20.08;;;;;;;7.51;86.28;102415.88;5072654;28;20036;-44
2022/09/22 00:57:13;;;;;;;21.50;19.20;;;;;;;7.49;86.48;102421.22;5071443;28;20005;-45
2022/09/22 00:59:40;;;;;;;20.90;18.23;;;;;;;7.44;86.27;102415.25;5065104;28;20013;-45
2022/09/22 01:02:06;;;;;;;21.65;19.08;;;;;;;7.42;86.30;102409.16;5072671;28;20039;-47
2022/09/22 01:04:32;;;;;;;20.38;18.25;;;;;;;7.41;86.52;102412.72;5072326;28;20503;-47
2022/09/22 01:06:59;;;;;;;22.63;19.80;;;;;;;7.37;87.20;102405.81;5078506;28;20032;-45
2022/09/22 01:09:25;;;;;;;21.25;18.38;;;;;;;7.35;86.78;102408.53;5074388;28;20033;-44
2022/09/22 01:11:51;;;;;;;20.75;18.80;;;;;;;7.34;87.04;102400.66;5073430;28;20051;-46
2022/09/22 01:14:52;;;;;;;20.85;18.25;;;;;;;7.35;87.32;102397.09;5074626;28;20049;-45
2022/09/22 01:17:45;;;;;;;22.58;19.27;;;;;;;7.35;87.11;102391.81;5074289;28;20084;-44
2022/09/22 01:20:29;;;;;;;21.58;19.25;;;;;;;7.35;87.27;102386.53;5082417;28;20021;-46
2022/09/22 01:23:13;;;;;;;19.77;17.77;;;;;;;7.33;86.95;102385.75;5074978;28;20029;-45
2022/09/22 01:26:22;;;;;;;20.33;18.23;;;;;;;7.32;87.26;102384.84;5070022;28;20081;-44
2022/09/22 01:29:28;;;;;;;20.65;18.52;;;;;;;7.31;87.06;102383.16;5079268;28;20046;-46
2022/09/22 01:32:03;;;;;;;20.05;17.95;;;;;;;7.28;86.94;102375.34;5090871;28;20086;-46
2022/09/22 01:34:54;;;;;;;20.73;18.60;;;;;;;7.26;87.43;102382.47;5074297;28;20039;-48
2022/09/22 01:37:39;;;;;;;20.17;18.00;;;;;;;7.26;87.25;102381.59;5065206;28;20103;-45
2022/09/22 01:40:10;;;;;;;19.90;17.92;;;;;;;7.23;87.56;102382.56;5074772;28;20051;-45
2022/09/22 01:42:43;;;;;;;19.25;16.67;;;;;;;7.23;86.98;102382.56;5074414;28;20029;-48
2022/09/22 01:45:13;;;;;;;19.13;17.17;;;;;;;7.19;86.77;102373.03;5074902;28;20033;-47
2022/09/22 01:47:52;;;;;;;19.63;17.52;;;;;;;7.19;87.48;102370.38;5074619;28;20025;-47
2022/09/22 01:50:26;;;;;;;20.30;18.20;;;;;;;7.14;86.75;102370.53;5075471;28;20029;-46
2022/09/22 01:52:54;;;;;;;19.83;17.83;;;;;;;7.12;87.37;102371.53;5049216;28;20040;-45
2022/09/22 01:55:26;;;;;;;21.45;17.85;;;;;;;7.10;87.51;102371.59;5063086;28;20037;-46
2022/09/22 01:58:04;;;;;;;20.73;18.55;;;;;;;7.09;87.84;102364.56;5054775;28;20060;-46
2022/09/22 02:00:31;;;;;;;19.67;17.65;;;;;;;7.06;87.99;102364.72;5055137;28;20029;-51
2022/09/22 02:03:01;;;;;;;20.13;18.13;;;;;;;7.04;87.47;102364.78;5050381;28;20056;-47
2022/09/22 02:05:35;;;;;;;20.52;18.52;;;;;;;7.02;87.66;102358.66;5055081;28;20017;-47
2022/09/22 02:08:03;;;;;;;20.20;18.20;;;;;;;7.01;88.04;102358.72;5055224;28;20036;-46
2022/09/22 02:10:35;;;;;;;22.73;18.80;;;;;;;7.00;88.03;102357.88;5052682;28;20116;-45
2022/09/22 02:13:01;;;;;;;19.58;17.45;;;;;;;6.97;87.45;102363.25;5052719;28;20033;-45
2022/09/22 02:18:16;;;;;;;23.40;18.73;;;;;;;6.93;88.04;102351.09;5058800;28;20056;-48
2022/09/22 02:20:42;;;;;;;19.25;17.33;;;;;;;6.94;87.50;102351.94;5057484;28;20017;-46
2022/09/22 02:23:07;;;;;;;18.98;16.88;;;;;;;6.91;88.07;102350.31;5057993;28;20044;-47
2022/09/22 02:25:33;;;;;;;19.25;17.23;;;;;;;6.91;87.65;102350.31;5053722;28;20037;-47
2022/09/22 02:27:59;;;;;;;19.42;17.42;;;;;;;6.88;87.77;102341.59;5057623;28;20057;-48
2022/09/22 02:30:25;;;;;;;20.00;17.90;;;;;;;6.86;87.95;102341.66;5058015;28;20037;-46
2022/09/22 02:32:53;;;;;;;20.00;16.85;;;;;;;6.83;87.59;102337.38;5057590;28;20049;-46
2022/09/22 02:35:21;;;;;;;19.48;17.48;;;;;;;6.82;87.93;102338.28;5056393;28;20053;-46
2022/09/22 02:37:52;;;;;;;19.27;17.13;;;;;;;6.80;88.02;102336.63;5057864;28;20021;-48
2022/09/22 02:40:29;;;;;;;20.10;16.85;;;;;;;6.77;88.19;102329.66;5057182;28;20025;-47
2022/09/22 02:43:13;;;;;;;17.70;15.90;;;;;;;6.81;87.73;102339.22;5058204;28;20048;-47
2022/09/22 02:45:56;;;;;;;18.63;16.48;;;;;;;6.79;87.51;102332.25;5050400;28;20018;-48
2022/09/22 02:48:29;;;;;;;19.60;17.42;;;;;;;6.75;87.29;102330.66;5060568;28;20072;-47
2022/09/22 02:50:56;;;;;;;19.75;17.55;;;;;;;6.74;87.76;102321.84;5057162;28;20021;-48
2022/09/22 02:53:21;;;;;;;19.15;17.13;;;;;;;6.69;87.96;102321.16;5061892;28;20044;-48
2022/09/22 02:55:47;;;;;;;20.77;18.00;;;;;;;6.67;88.14;102326.50;5057224;28;20021;-48
2022/09/22 02:58:14;;;;;;;21.45;17.45;;;;;;;6.63;88.11;102322.25;5057303;28;20045;-45
2022/09/22 03:00:40;;;;;;;19.50;17.15;;;;;;;6.63;88.34;102322.25;5057244;28;20077;-47
2022/09/22 03:03:05;;;;;;;18.05;16.15;;;;;;;6.62;88.04;102317.88;5057585;28;20033;-49
2022/09/22 03:05:30;;;;;;;20.27;18.13;;;;;;;6.63;88.13;102313.47;5057339;28;20033;-49
2022/09/22 03:07:57;;;;;;;21.58;17.48;;;;;;;6.61;88.07;102320.56;5057460;28;20029;-46
2022/09/22 03:10:22;;;;;;;19.15;17.27;;;;;;;6.58;88.33;102316.28;5060159;28;20040;-48
2022/09/22 03:12:47;;;;;;;19.85;17.83;;;;;;;6.57;88.09;102317.19;5058026;28;20022;-47
2022/09/22 03:15:14;;;;;;;20.63;18.23;;;;;;;6.54;87.96;102313.81;5057518;28;20037;-47
2022/09/22 03:17:43;;;;;;;21.15;18.70;;;;;;;6.52;88.06;102313.00;5057764;28;20057;-50
2022/09/22 03:20:10;;;;;;;20.60;18.05;;;;;;;6.49;88.48;102313.97;5057923;28;20044;-45
2022/09/22 03:22:37;;;;;;;20.73;18.63;;;;;;;6.47;88.81;102314.00;5057504;28;20032;-45
2022/09/22 03:25:04;;;;;;;20.33;17.52;;;;;;;6.43;89.00;102315.06;5057949;28;20042;-46
2022/09/22 03:27:29;;;;;;;21.02;18.88;;;;;;;6.45;88.93;102307.06;5053010;28;20021;-48
2022/09/22 03:29:54;;;;;;;21.02;19.00;;;;;;;6.42;88.91;102308.03;5053521;28;20117;-47
2022/09/22 03:32:21;;;;;;;20.52;18.42;;;;;;;6.43;89.00;102309.78;5057194;28;20026;-47
2022/09/22 03:34:47;;;;;;;20.42;17.83;;;;;;;6.42;88.77;102309.81;5057305;28;20034;-47
2022/09/22 03:37:14;;;;;;;21.15;18.95;;;;;;;6.40;88.85;102299.31;5056301;28;20029;-48
2022/09/22 03:39:39;;;;;;;22.70;18.55;;;;;;;6.39;88.91;102305.50;5057985;28;20034;-47
2022/09/22 03:42:04;;;;;;;20.58;18.30;;;;;;;6.38;88.73;102303.78;5063537;28;20044;-47
2022/09/22 03:44:30;;;;;;;20.15;17.95;;;;;;;6.36;88.79;102304.75;5057483;28;20047;-46
2022/09/22 03:46:55;;;;;;;20.42;18.38;;;;;;;6.35;88.81;102303.91;5058162;28;20081;-47
2022/09/22 03:49:20;;;;;;;20.88;18.67;;;;;;;6.33;88.75;102296.94;5056722;28;20025;-47
2022/09/22 03:51:45;;;;;;;20.88;18.70;;;;;;;6.32;88.63;102303.16;5057289;28;20033;-46
2022/09/22 03:54:11;;;;;;;21.25;18.98;;;;;;;6.30;88.90;102301.41;5053635;28;20029;-48
2022/09/22 03:56:37;;;;;;;20.70;18.55;;;;;;;6.27;88.88;102306.78;5056975;28;20021;-47
2022/09/22 03:59:02;;;;;;;20.00;17.90;;;;;;;6.29;88.70;102290.91;5049105;28;20112;-46
2022/09/22 04:01:28;;;;;;;19.70;17.63;;;;;;;6.26;88.57;102296.28;5056793;28;20029;-46
2022/09/22 04:03:53;;;;;;;20.58;18.08;;;;;;;6.23;88.48;102293.78;5056662;28;20093;-46
2022/09/22 04:06:19;;;;;;;22.02;17.50;;;;;;;6.23;88.61;102294.66;5056678;28;20075;-47
2022/09/22 04:08:44;;;;;;;18.95;17.05;;;;;;;6.22;88.72;102298.19;5057103;28;20037;-48
2022/09/22 04:11:10;;;;;;;18.92;17.02;;;;;;;6.21;88.77;102292.97;5056559;28;20466;-49
2022/09/22 04:13:35;;;;;;;19.58;17.40;;;;;;;6.18;88.89;102291.31;5054006;28;20033;-48
2022/09/22 04:16:02;;;;;;;19.45;17.35;;;;;;;6.16;89.09;102289.63;5056889;28;20032;-49
2022/09/22 04:18:28;;;;;;;19.77;16.88;;;;;;;6.18;88.99;102290.44;5056476;28;20029;-46
2022/09/22 04:20:57;;;;;;;19.05;16.95;;;;;;;6.13;88.68;102285.34;5056671;28;20056;-48
2022/09/22 04:23:26;;;;;;;19.20;17.33;;;;;;;6.13;88.51;102284.44;5056369;28;20017;-47
2022/09/22 04:25:52;;;;;;;19.70;17.17;;;;;;;6.09;88.86;102287.19;5056215;28;20025;-47
2022/09/22 04:28:17;;;;;;;20.02;17.50;;;;;;;6.07;89.20;102280.25;5056412;28;20025;-45
2022/09/22 04:30:43;;;;;;;19.63;17.48;;;;;;;6.05;89.42;102280.31;5053800;28;20026;-46
2022/09/22 04:33:09;;;;;;;18.45;16.55;;;;;;;6.06;89.24;102286.44;5047041;28;20030;-47
2022/09/22 04:35:35;;;;;;;18.67;16.88;;;;;;;6.05;89.06;102287.38;5056559;28;20017;-48
2022/09/22 04:38:00;;;;;;;18.83;16.90;;;;;;;6.05;88.93;102279.47;5055020;28;20025;-48
2022/09/22 04:40:26;;;;;;;18.55;16.55;;;;;;;6.05;89.01;102284.72;5056517;28;20133;-47
2022/09/22 04:42:51;;;;;;;21.30;18.20;;;;;;;6.03;88.64;102282.16;5056505;28;20060;-46
2022/09/22 04:45:16;;;;;;;19.52;17.25;;;;;;;6.04;88.67;102283.84;5056305;28;20029;-47
2022/09/22 04:47:47;;;;;;;19.60;16.90;;;;;;;6.03;89.19;102283.91;5055909;28;20029;-48
2022/09/22 04:50:13;;;;;;;20.10;18.17;;;;;;;6.02;89.24;102287.47;5056485;28;20048;-47
2022/09/22 04:52:38;;;;;;;19.85;17.73;;;;;;;6.00;89.18;102276.97;5055245;28;20041;-48
2022/09/22 04:55:04;;;;;;;21.52;17.00;;;;;;;5.98;89.29;102278.81;5056299;28;20025;-47
2022/09/22 04:57:29;;;;;;;19.70;17.58;;;;;;;5.97;88.96;102279.72;5056432;28;20089;-49
2022/09/22 04:59:55;;;;;;;19.88;17.80;;;;;;;5.96;89.13;102285.88;5056144;28;20052;-47
2022/09/22 05:02:20;;;;;;;20.17;17.88;;;;;;;5.93;89.71;102280.72;5056115;28;20041;-48
2022/09/22 05:04:46;;;;;;;19.08;17.08;;;;;;;5.93;89.40;102284.19;5056402;28;20034;-46
2022/09/22 05:07:11;;;;;;;20.08;18.10;;;;;;;5.93;89.17;102285.97;5053955;28;20036;-46
2022/09/22 05:09:37;;;;;;;20.95;18.35;;;;;;;5.88;89.49;102278.22;5056192;28;20017;-45
2022/09/22 05:12:03;;;;;;;22.02;19.73;;;;;;;5.87;89.65;102286.19;5055998;28;20018;-44
2022/09/22 05:14:28;;;;;;;21.27;18.27;;;;;;;5.84;89.22;102281.84;5055819;28;20048;-48
2022/09/22 05:16:54;;;;;;;21.13;18.92;;;;;;;5.82;89.37;102278.41;5055373;28;20132;-45
2022/09/22 05:19:20;;;;;;;20.92;18.67;;;;;;;5.83;89.61;102289.81;5055803;28;20053;-48
2022/09/22 05:21:45;;;;;;;21.98;19.27;;;;;;;5.80;89.08;102289.94;5055882;28;20021;-46
2022/09/22 05:24:10;;;;;;;23.85;19.40;;;;;;;5.79;89.51;102283.78;5055830;28;20073;-47
2022/09/22 05:26:35;;;;;;;21.10;18.92;;;;;;;5.77;89.09;102284.78;5052539;28;20093;-46
2022/09/22 05:29:01;;;;;;;21.58;19.30;;;;;;;5.74;89.83;102291.88;5055894;28;20029;-48
2022/09/22 05:31:26;;;;;;;21.00;18.85;;;;;;;5.75;89.77;102288.31;5065466;28;20021;-47
2022/09/22 05:33:51;;;;;;;21.10;19.00;;;;;;;5.74;89.92;102286.59;5055189;28;20089;-47
2022/09/22 05:36:17;;;;;;;21.98;19.48;;;;;;;5.73;89.72;102287.50;5055499;28;20064;-48
2022/09/22 05:38:42;;;;;;;20.95;18.65;;;;;;;5.71;89.57;102291.97;5055269;28;20053;-47
2022/09/22 05:41:07;;;;;;;21.80;19.02;;;;;;;5.72;89.90;102296.31;5055480;28;20025;-48
2022/09/22 05:43:33;;;;;;;21.55;18.23;;;;;;;5.70;89.69;102294.66;5055821;28;20021;-48
2022/09/22 05:45:58;;;;;;;21.95;19.67;;;;;;;5.70;89.53;102297.28;5055300;28;20105;-48
2022/09/22 05:48:23;;;;;;;21.40;19.08;;;;;;;5.69;89.77;102296.41;5050211;28;20034;-49
2022/09/22 05:50:48;;;;;;;21.42;19.13;;;;;;;5.71;90.13;102299.00;5054288;28;20014;-49
2022/09/22 05:53:15;;;;;;;21.15;18.77;;;;;;;5.70;90.48;102298.16;5058455;28;20052;-48
2022/09/22 05:55:41;;;;;;;21.27;19.15;;;;;;;5.70;90.83;102302.56;5056948;28;20060;-47
2022/09/22 05:58:10;;;;;;;22.25;19.95;;;;;;;5.71;91.07;102297.25;5054644;28;20026;-45
2022/09/22 06:00:36;;;;;;;;;;;;;;;5.80;89.36;102297.84;5053000;28;20010;-48
2022/09/22 06:03:01;;;;;;;22.48;18.88;;;;;;;5.74;90.11;102291.00;5058953;28;19968;-47
2022/09/22 06:05:26;;;;;;;20.90;18.90;;;;;;;5.75;90.46;102296.22;5067250;28;20017;-49
2022/09/22 06:08:02;;;;;;;22.48;19.25;;;;;;;5.76;90.75;102297.06;5055097;28;20065;-48
2022/09/22 06:10:33;;;;;;;21.60;19.40;;;;;;;5.80;91.15;102297.84;5054212;28;20071;-48
2022/09/22 06:13:03;;;;;;;23.15;19.52;;;;;;;5.82;91.25;102303.94;5052833;28;20033;-49
2022/09/22 06:15:30;;;;;;;24.73;22.00;;;;;;;5.85;92.05;102303.84;5057714;28;20052;-51
2022/09/22 06:17:55;;;;;;;28.58;20.48;;;;;;;5.86;91.87;102302.91;5057940;28;20038;-47
2022/09/22 06:20:21;;;;;;;24.13;21.63;;;;;;;5.88;92.18;102301.94;5051705;28;20028;-47
2022/09/22 06:22:47;;;;;;;24.60;21.98;;;;;;;5.94;92.63;102298.25;5055612;28;20085;-47
2022/09/22 06:25:13;;;;;;;25.20;22.50;;;;;;;5.95;92.37;102292.06;5072454;28;20026;-46
2022/09/22 06:27:39;;;;;;;26.45;23.75;;;;;;;6.00;93.31;102290.16;5056376;28;20018;-46
2022/09/22 06:30:04;;;;;;;28.55;23.52;;;;;;;6.05;93.66;102296.13;5052792;28;20640;-47
2022/09/22 06:32:32;;;;;;;27.67;24.67;;;;;;;6.10;93.94;102286.28;5056687;28;20033;-45
2022/09/22 06:35:01;;;;;;;32.30;25.27;;;;;;;6.17;94.73;102294.00;5054882;28;20029;-48
2022/09/22 06:37:27;;;;;;;27.00;24.20;;;;;;;6.20;94.66;102300.03;5056528;28;20045;-45
2022/09/22 06:39:53;;;;;;;26.15;23.60;;;;;;;6.25;94.83;102284.88;5051899;28;20108;-48
2022/09/22 06:42:18;;;;;;;29.65;25.73;;;;;;;6.33;95.41;102296.94;5054574;28;20045;-48
2022/09/22 06:44:44;;;;;;;27.25;24.48;;;;;;;6.40;95.60;102298.47;5062938;28;20088;-47
2022/09/22 06:47:11;;;;;;;29.95;25.30;;;;;;;6.44;95.92;102295.63;5053498;28;20030;-45
2022/09/22 06:49:36;;;;;;;29.65;26.05;;;;;;;6.53;96.44;102297.09;5055143;28;20041;-46
2022/09/22 06:52:02;;;;;;;30.30;25.70;;;;;;;6.62;96.64;102293.25;5054558;28;20027;-46
2022/09/22 06:54:27;;;;;;;31.17;25.73;;;;;;;6.65;96.11;102298.44;5050857;28;20013;-45
2022/09/22 06:56:52;;;;;;;30.48;25.55;;;;;;;6.75;96.69;102301.59;5054681;28;20040;-47
2022/09/22 06:59:18;;;;;;;33.92;25.67;;;;;;;6.78;96.77;102298.84;5055100;28;20025;-46
2022/09/22 07:01:44;;;;;;;29.80;26.65;;;;;;;6.89;96.99;102285.22;5058470;28;20029;-47
2022/09/22 07:04:10;;;;;;;29.75;26.48;;;;;;;6.95;97.02;102290.28;5047715;28;20033;-47
2022/09/22 07:06:36;;;;;;;28.55;25.55;;;;;;;7.01;96.84;102288.28;5058672;28;20025;-50
2022/09/22 07:09:03;;;;;;;27.88;24.92;;;;;;;7.10;97.12;102288.84;5058518;28;20017;-47
2022/09/22 07:11:29;;;;;;;29.00;25.42;;;;;;;7.18;97.17;102289.41;5059321;28;20041;-49
2022/09/22 07:13:54;;;;;;;27.85;24.85;;;;;;;7.31;97.31;102281.81;5059263;28;20045;-46
2022/09/22 07:16:22;;;;;;;31.10;25.00;;;;;;;7.41;97.52;102286.69;5048867;28;20034;-47
2022/09/22 07:18:49;;;;;;;29.00;24.45;;;;;;;7.54;97.31;102283.56;5055233;28;20041;-46
2022/09/22 07:21:23;;;;;;;31.70;25.05;;;;;;;7.71;97.29;102282.84;5058746;28;20020;-45
2022/09/22 07:23:51;;;;;;;30.13;23.65;;;;;;;7.86;96.87;102276.06;5058663;28;20016;-48
2022/09/22 07:26:20;;;;;;;31.48;23.00;;;;;;;8.04;96.58;102271.78;5051276;28;20028;-45
2022/09/22 07:28:49;;;;;;;25.98;23.15;;;;;;;8.27;96.87;102276.94;5058371;28;20030;-47
2022/09/22 07:31:15;;;;;;;23.00;20.60;;;;;;;8.43;95.80;102271.00;5058416;28;20026;-45
2022/09/22 07:33:42;;;;;;;24.85;19.92;;;;;;;8.73;94.82;102278.47;5050315;28;20048;-50
2022/09/22 07:36:17;;;;;;;23.73;18.98;;;;;;;8.95;93.64;102273.06;5048216;28;20029;-46
2022/09/22 07:38:45;;;;;;;20.67;17.25;;;;;;;9.19;92.69;102274.56;5056974;28;20022;-48
2022/09/22 07:41:22;;;;;;;19.98;17.85;;;;;;;9.44;92.07;102266.28;5056185;28;20021;-46
2022/09/22 07:43:49;;;;;;;22.13;16.70;;;;;;;9.68;91.30;102273.09;5055877;28;20059;-46
2022/09/22 07:46:15;;;;;;;19.00;15.63;;;;;;;9.90;90.00;102272.84;5055830;28;20084;-46
2022/09/22 07:51:23;;;;;;;18.77;14.48;;;;;;;10.34;87.99;102278.56;5056106;28;20033;-50
2022/09/22 07:54:06;;;;;;;15.98;14.25;;;;;;;10.65;86.78;102268.94;5050211;28;20017;-48
2022/09/22 07:56:32;;;;;;;15.30;13.65;;;;;;;10.98;85.81;102267.19;5055754;28;20032;-46
2022/09/22 07:59:03;;;;;;;16.52;12.75;;;;;;;11.27;83.94;102269.06;5056805;28;20032;-46
2022/09/22 08:01:31;;;;;;;16.25;12.57;;;;;;;11.54;82.64;102263.13;5057155;28;20077;-49
2022/09/22 08:03:56;;;;;;;18.30;11.95;;;;;;;11.78;82.74;102259.97;5055432;28;20052;-47
2022/09/22 08:06:22;;;;;;;13.02;10.23;;;;;;;11.94;79.79;102258.13;5056141;28;20034;-47
2022/09/22 08:08:52;;;;;;;17.00;10.25;;;;;;;12.23;80.10;102260.00;5056731;28;20163;-48
2022/09/22 08:11:19;;;;;;;13.75;9.85;;;;;;;12.48;78.29;102254.00;5056295;28;20009;-47
2022/09/22 08:13:52;;;;;;;12.05;9.10;;;;;;;12.69;77.99;102254.44;5055856;28;20025;-48
2022/09/22 08:16:18;;;;;;;10.07;8.18;;;;;;;12.92;75.53;102251.19;5054532;28;20093;-46
2022/09/22 08:18:44;;;;;;;11.93;7.88;;;;;;;13.08;75.57;102260.88;5056802;28;20025;-47
2022/09/22 08:21:17;;;;;;;15.02;8.57;;;;;;;13.33;74.23;102249.47;5059918;28;20025;-46
2022/09/22 08:23:42;;;;;;;9.77;7.68;;;;;;;13.53;72.92;102253.50;5062863;28;20036;-50
2022/09/22 08:26:08;;;;;;;10.13;8.02;;;;;;;13.78;74.12;102241.19;5056747;28;20029;-48
2022/09/22 08:28:34;;;;;;;12.27;7.90;;;;;;;14.00;71.01;102248.56;5056706;28;20025;-47
2022/09/22 08:31:00;;;;;;;9.20;7.22;;;;;;;14.25;70.12;102250.38;5049896;28;20041;-48
2022/09/22 08:33:27;;;;;;;13.38;7.57;;;;;;;14.50;69.84;102241.50;5055905;28;20022;-50
2022/09/22 08:35:55;;;;;;;8.65;6.90;;;;;;;14.67;67.42;102245.69;5054845;28;20036;-46
2022/09/22 08:38:22;;;;;;;9.25;6.72;;;;;;;14.91;68.25;102237.72;5047717;28;20034;-48
2022/09/22 08:41:00;;;;;;;9.20;6.50;;;;;;;15.18;67.52;102233.97;5047117;28;20025;-46
2022/09/22 08:43:27;;;;;;;9.37;6.33;;;;;;;15.45;67.47;102236.41;5047146;28;20025;-46
2022/09/22 08:45:53;;;;;;;9.63;6.25;;;;;;;15.65;64.55;102237.56;5047638;28;20260;-48
2022/09/22 08:53:56;;;;;;;7.45;5.30;;;;;;;16.28;63.46;102239.94;5045746;28;19959;-46
2022/09/22 08:56:32;;;;;;;8.35;5.40;;;;;;;16.51;63.08;102237.28;5039676;28;20399;-49
2022/09/22 08:59:21;;;;;;;9.32;5.10;;;;;;;16.71;64.31;102241.88;5048591;28;20021;-46
2022/09/22 09:01:59;;;;;;;7.93;4.75;;;;;;;16.95;61.51;102236.41;5048644;28;20041;-47
2022/09/22 09:04:59;;;;;;;8.00;4.60;;;;;;;17.08;61.48;102246.13;5058001;28;20033;-47
2022/09/22 09:07:41;;;;;;;7.80;4.72;;;;;;;17.44;61.83;102244.06;5048220;28;20084;-44
2022/09/22 09:10:38;;;;;;;5.55;4.07;;;;;;;17.64;58.96;102243.22;5037769;28;20022;-45
2022/09/22 09:13:25;;;;;;;5.63;3.80;;;;;;;17.91;58.93;102245.41;5048499;28;20486;-46
2022/09/22 09:16:03;;;;;;;5.85;3.92;;;;;;;18.07;52.92;102247.66;5049401;28;20124;-45
2022/09/22 09:18:32;;;;;;;6.25;3.50;;;;;;;18.33;53.29;102243.69;5048939;28;20034;-45
2022/09/22 09:21:02;;;;;;;5.18;3.05;;;;;;;18.56;52.02;102245.19;5048855;28;20493;-45
2022/09/22 09:23:37;;;;;;;3.63;3.03;;;;;;;18.74;53.15;102248.09;5049770;28;20096;-48
2022/09/22 09:26:04;;;;;;;5.00;3.00;;;;;;;18.97;52.78;102243.38;5056223;28;20026;-51
2022/09/22 09:28:41;;;;;;;4.97;3.25;;;;;;;19.22;55.76;102244.69;5056835;28;20041;-48
2022/09/22 09:31:30;;;;;;;7.53;3.10;;;;;;;19.25;52.34;102245.38;5048686;28;20037;-49
2022/09/22 09:34:02;;;;;;;4.68;3.15;;;;;;;19.39;51.62;102240.44;5053936;28;20068;-48
2022/09/22 09:36:32;;;;;;;7.43;3.55;;;;;;;19.53;50.05;102235.59;5055768;28;20037;-51
2022/09/22 09:39:07;;;;;;;6.70;3.00;;;;;;;19.60;47.95;102236.72;5055681;28;20022;-51
2022/09/22 09:41:34;;;;;;;4.28;2.70;;;;;;;19.76;47.46;102242.41;5055923;28;20018;-49
2022/09/22 09:44:01;;;;;;;3.47;2.60;;;;;;;19.82;48.45;102237.44;5054897;28;20010;-50
2022/09/22 09:46:52;;;;;;;4.95;3.03;;;;;;;19.90;47.58;102241.13;5055761;28;20027;-49
2022/09/22 09:49:22;;;;;;;7.03;3.50;;;;;;;20.07;47.39;102236.84;5063493;28;20033;-51
2022/09/22 09:51:55;;;;;;;5.82;3.35;;;;;;;20.26;48.74;102238.59;5044842;28;20042;-49
2022/09/22 09:54:22;;;;;;;5.35;3.03;;;;;;;20.49;45.57;102232.84;5055263;28;20089;-51
2022/09/22 09:57:20;;;;;;;4.75;3.10;;;;;;;20.70;49.90;102228.09;5055779;28;20044;-48
2022/09/22 10:00:31;;;;;;;4.32;2.90;;;;;;;20.80;47.94;102230.75;5031446;28;20059;-50
2022/09/22 10:03:31;;;;;;;6.32;3.00;;;;;;;20.85;48.31;102222.16;5055701;28;20045;-49
2022/09/22 10:06:09;;;;;;;5.53;2.70;;;;;;;20.83;44.75;102224.16;5042046;28;20037;-49
2022/09/22 10:08:46;;;;;;;4.32;2.90;;;;;;;21.07;45.98;102216.34;5058883;28;20045;-51
2022/09/22 10:11:13;;;;;;;3.13;2.58;;;;;;;21.29;43.18;102216.03;5051139;28;20040;-49
2022/09/22 10:13:41;;;;;;;4.20;2.63;;;;;;;21.36;41.82;102212.53;5055068;28;20085;-49
2022/09/22 10:16:21;;;;;;;3.90;2.45;;;;;;;21.50;45.37;102211.19;5055604;28;20017;-48
2022/09/22 10:18:48;;;;;;;5.22;2.75;;;;;;;21.64;42.36;102214.34;5054906;28;20041;-49
2022/09/22 10:21:22;;;;;;;4.53;3.25;;;;;;;21.69;42.61;102212.00;5053786;28;20089;-48
2022/09/22 10:23:58;;;;;;;3.95;2.80;;;;;;;21.71;44.14;102215.41;5054216;28;20029;-49
2022/09/22 10:26:29;;;;;;;4.47;2.70;;;;;;;21.89;41.39;102209.94;5054230;28;20025;-48
2022/09/22 10:29:08;;;;;;;2.53;2.33;;;;;;;21.98;43.43;102212.56;5050364;28;20059;-46
2022/09/22 10:31:37;;;;;;;6.05;2.55;;;;;;;22.09;41.44;102208.72;5051740;28;20053;-50
2022/09/22 10:34:03;;;;;;;3.75;2.58;;;;;;;22.13;39.62;102206.53;5053615;28;20029;-52
2022/09/22 10:36:29;;;;;;;3.35;2.83;;;;;;;22.18;39.11;102201.47;5052895;28;20044;-49
2022/09/22 10:38:55;;;;;;;4.30;2.83;;;;;;;22.29;40.83;102200.41;5056521;28;20033;-49
2022/09/22 10:41:26;;;;;;;6.00;3.20;;;;;;;22.46;39.45;102195.91;5051353;28;20037;-48
2022/09/22 10:44:00;;;;;;;5.15;2.95;;;;;;;22.53;41.76;102188.81;5045351;28;20022;-48
2022/09/22 10:46:27;;;;;;;5.28;2.50;;;;;;;22.57;39.08;102189.34;5055372;28;20014;-47
2022/09/22 10:48:59;;;;;;;2.75;1.95;;;;;;;22.73;37.42;102183.97;5055908;28;20025;-48
2022/09/22 10:51:46;;;;;;;2.92;1.98;;;;;;;22.76;40.33;102175.50;5058906;28;20051;-47
2022/09/22 10:54:40;;;;;;;2.58;2.00;;;;;;;22.64;40.48;102184.97;5050729;28;20105;-46
2022/09/22 10:57:16;;;;;;;2.20;1.88;;;;;;;22.57;37.46;102182.06;5057717;28;20069;-47
2022/09/22 11:00:07;;;;;;;1.92;1.70;;;;;;;22.76;40.34;102182.78;5057728;28;20377;-48
2022/09/22 11:02:44;;;;;;;2.75;1.88;;;;;;;22.76;36.80;102185.50;5057645;28;20891;-48
2022/09/22 11:05:15;;;;;;;3.03;2.20;;;;;;;23.01;38.10;102175.56;5057630;28;20021;-48
2022/09/22 11:13:53;;;;;;;3.85;1.80;;;;;;;23.14;37.10;102170.50;5057283;28;20060;-49
2022/09/22 11:16:37;;;;;;;1.48;1.33;;;;;;;23.29;36.55;102162.56;5046634;28;20037;-49
2022/09/22 11:19:36;;;;;;;4.20;1.58;;;;;;;23.40;37.94;102167.66;5056403;28;20044;-49
2022/09/22 11:22:26;;;;;;;2.90;1.50;;;;;;;23.19;37.43;102165.44;5050905;28;20140;-49
2022/09/22 11:25:08;;;;;;;2.05;1.55;;;;;;;23.04;34.94;102159.81;5053070;28;20032;-49
2022/09/22 11:28:08;;;;;;;1.52;1.42;;;;;;;23.19;38.55;102161.88;5055449;28;20085;-48
2022/09/22 11:30:45;;;;;;;3.10;1.20;;;;;;;23.22;37.69;102156.13;5053161;28;20104;-48
2022/09/22 11:33:23;;;;;;;7.22;1.58;;;;;;;23.23;36.79;102161.38;5057504;28;20056;-48
2022/09/22 11:36:02;;;;;;;2.70;1.45;;;;;;;23.27;34.85;102156.47;5050908;28;20044;-49
2022/09/22 11:39:02;;;;;;;3.90;1.98;;;;;;;23.22;36.03;102151.53;5045762;28;20495;-46
2022/09/22 11:41:36;;;;;;;2.70;1.67;;;;;;;23.12;35.92;102147.31;5042409;28;20025;-47
2022/09/22 11:44:12;;;;;;;4.85;1.60;;;;;;;22.84;36.04;102150.31;5038480;28;20076;-47
2022/09/22 11:47:04;;;;;;;2.90;1.48;;;;;;;22.72;37.62;102139.78;5036063;28;20211;-49
2022/09/22 11:50:00;;;;;;;3.53;1.77;;;;;;;22.91;37.10;102135.94;5035478;28;20120;-49
2022/09/22 11:52:42;;;;;;;3.88;1.63;;;;;;;22.88;34.93;102130.84;5037836;28;20067;-48
2022/09/22 11:55:29;;;;;;;1.65;1.30;;;;;;;22.87;36.63;102129.13;5055165;28;20010;-49